Arrecife, Spain
Current Conditions -  °F | °C
As of 12:30 AM on Thursday 18 Dec 2014 (Local Time) from GCRR Reporting Station
Broken Clouds Broken Clouds  
Wind Chill: 64°   Ceiling: 4000
Heat Index: 64°   Visibility: 6mi
Dew Point: 57°   Wind: 9mph
Humidity: 77%   Direction: 20°NNE
Pressure: 30.24"   Gusts: NA
Location:  28.96°N, 13.55°W
Report Text: GCRR 180030Z 02008KT 9999 FEW025 BKN040 18/14 Q1024
Loading
Personal Weather Stations






























Interactive Weather Map New forecast layout! Learn more

10-Day Weather Forecast

Advertisements
Track Severe Weather on mobile